sensor_id;sensor_type;location;lat;lon;timestamp;P1;durP1;ratioP1;P2;durP2;ratioP2
11313;SDS011;5712;48.858;9.206;2022-11-15T00:01:51;5.63;;;4.23;;
11313;SDS011;5712;48.858;9.206;2022-11-15T00:04:18;4.90;;;4.17;;
11313;SDS011;5712;48.858;9.206;2022-11-15T00:06:46;4.87;;;3.80;;
11313;SDS011;5712;48.858;9.206;2022-11-15T00:09:13;4.10;;;3.50;;
11313;SDS011;5712;48.858;9.206;2022-11-15T00:11:39;4.90;;;4.10;;
11313;SDS011;5712;48.858;9.206;2022-11-15T00:14:06;5.87;;;3.90;;
11313;SDS011;5712;48.858;9.206;2022-11-15T00:16:32;5.70;;;4.13;;
11313;SDS011;5712;48.858;9.206;2022-11-15T00:18:59;5.77;;;3.40;;
11313;SDS011;5712;48.858;9.206;2022-11-15T00:21:26;4.93;;;3.70;;
11313;SDS011;5712;48.858;9.206;2022-11-15T00:23:54;4.20;;;3.47;;
11313;SDS011;5712;48.858;9.206;2022-11-15T00:26:20;3.80;;;3.20;;
11313;SDS011;5712;48.858;9.206;2022-11-15T00:28:47;4.63;;;3.47;;
11313;SDS011;5712;48.858;9.206;2022-11-15T00:31:14;3.97;;;3.23;;
11313;SDS011;5712;48.858;9.206;2022-11-15T00:33:42;5.00;;;3.43;;
11313;SDS011;5712;48.858;9.206;2022-11-15T00:36:09;5.80;;;3.40;;
11313;SDS011;5712;48.858;9.206;2022-11-15T00:38:37;3.93;;;3.00;;
11313;SDS011;5712;48.858;9.206;2022-11-15T00:41:07;4.13;;;3.10;;
11313;SDS011;5712;48.858;9.206;2022-11-15T00:43:33;4.00;;;3.23;;
11313;SDS011;5712;48.858;9.206;2022-11-15T00:46:00;4.90;;;3.43;;
11313;SDS011;5712;48.858;9.206;2022-11-15T00:48:28;5.07;;;3.13;;
11313;SDS011;5712;48.858;9.206;2022-11-15T00:50:54;3.63;;;2.97;;
11313;SDS011;5712;48.858;9.206;2022-11-15T00:53:21;4.10;;;3.10;;
11313;SDS011;5712;48.858;9.206;2022-11-15T00:55:48;3.70;;;2.90;;
11313;SDS011;5712;48.858;9.206;2022-11-15T00:58:16;3.77;;;3.10;;
11313;SDS011;5712;48.858;9.206;2022-11-15T01:00:42;3.23;;;2.73;;
11313;SDS011;5712;48.858;9.206;2022-11-15T01:03:09;4.13;;;3.10;;
11313;SDS011;5712;48.858;9.206;2022-11-15T01:05:36;4.67;;;3.13;;
11313;SDS011;5712;48.858;9.206;2022-11-15T01:08:03;4.17;;;3.13;;
11313;SDS011;5712;48.858;9.206;2022-11-15T01:10:30;4.00;;;3.37;;
11313;SDS011;5712;48.858;9.206;2022-11-15T01:12:56;3.57;;;3.20;;
11313;SDS011;5712;48.858;9.206;2022-11-15T01:15:24;5.47;;;3.50;;
11313;SDS011;5712;48.858;9.206;2022-11-15T01:17:51;4.53;;;3.37;;
11313;SDS011;5712;48.858;9.206;2022-11-15T01:20:18;4.27;;;3.40;;
11313;SDS011;5712;48.858;9.206;2022-11-15T01:22:45;5.13;;;3.60;;
11313;SDS011;5712;48.858;9.206;2022-11-15T01:25:11;6.07;;;3.87;;
11313;SDS011;5712;48.858;9.206;2022-11-15T01:27:38;6.43;;;4.10;;
11313;SDS011;5712;48.858;9.206;2022-11-15T01:30:05;5.80;;;3.80;;
11313;SDS011;5712;48.858;9.206;2022-11-15T01:32:34;5.00;;;3.93;;
11313;SDS011;5712;48.858;9.206;2022-11-15T01:35:01;6.03;;;3.63;;
11313;SDS011;5712;48.858;9.206;2022-11-15T01:37:27;6.53;;;3.73;;
11313;SDS011;5712;48.858;9.206;2022-11-15T01:39:54;6.70;;;4.13;;
11313;SDS011;5712;48.858;9.206;2022-11-15T01:42:21;5.90;;;4.20;;
11313;SDS011;5712;48.858;9.206;2022-11-15T01:44:48;6.23;;;4.23;;
11313;SDS011;5712;48.858;9.206;2022-11-15T01:47:16;6.30;;;4.17;;
11313;SDS011;5712;48.858;9.206;2022-11-15T01:49:49;4.53;;;3.97;;
11313;SDS011;5712;48.858;9.206;2022-11-15T01:52:22;5.00;;;4.03;;
11313;SDS011;5712;48.858;9.206;2022-11-15T01:54:52;4.30;;;3.60;;
11313;SDS011;5712;48.858;9.206;2022-11-15T01:57:22;6.73;;;4.43;;
11313;SDS011;5712;48.858;9.206;2022-11-15T01:59:49;6.30;;;4.37;;
11313;SDS011;5712;48.858;9.206;2022-11-15T02:02:16;7.17;;;4.50;;
11313;SDS011;5712;48.858;9.206;2022-11-15T02:04:43;6.03;;;4.37;;
11313;SDS011;5712;48.858;9.206;2022-11-15T02:07:14;5.50;;;4.27;;
11313;SDS011;5712;48.858;9.206;2022-11-15T02:09:43;5.57;;;4.13;;
11313;SDS011;5712;48.858;9.206;2022-11-15T02:12:10;6.20;;;4.47;;
11313;SDS011;5712;48.858;9.206;2022-11-15T02:14:42;4.97;;;4.10;;
11313;SDS011;5712;48.858;9.206;2022-11-15T02:17:21;7.03;;;3.60;;
11313;SDS011;5712;48.858;9.206;2022-11-15T02:20:10;4.73;;;3.57;;
11313;SDS011;5712;48.858;9.206;2022-11-15T02:23:00;4.17;;;3.17;;
11313;SDS011;5712;48.858;9.206;2022-11-15T02:25:50;4.37;;;3.10;;
11313;SDS011;5712;48.858;9.206;2022-11-15T02:28:48;4.80;;;3.13;;
11313;SDS011;5712;48.858;9.206;2022-11-15T02:31:26;3.37;;;2.97;;
11313;SDS011;5712;48.858;9.206;2022-11-15T02:33:59;2.83;;;2.63;;
11313;SDS011;5712;48.858;9.206;2022-11-15T02:36:36;3.53;;;3.03;;
11313;SDS011;5712;48.858;9.206;2022-11-15T02:39:09;3.00;;;2.70;;
11313;SDS011;5712;48.858;9.206;2022-11-15T02:41:45;4.77;;;3.23;;
11313;SDS011;5712;48.858;9.206;2022-11-15T02:44:18;5.80;;;3.07;;
11313;SDS011;5712;48.858;9.206;2022-11-15T02:46:51;3.63;;;3.07;;
11313;SDS011;5712;48.858;9.206;2022-11-15T02:49:38;4.40;;;3.30;;
11313;SDS011;5712;48.858;9.206;2022-11-15T02:52:07;4.50;;;3.10;;
11313;SDS011;5712;48.858;9.206;2022-11-15T02:54:34;5.33;;;3.30;;
11313;SDS011;5712;48.858;9.206;2022-11-15T02:57:01;5.03;;;3.77;;
11313;SDS011;5712;48.858;9.206;2022-11-15T02:59:43;3.53;;;3.23;;
11313;SDS011;5712;48.858;9.206;2022-11-15T03:02:40;4.97;;;3.93;;
11313;SDS011;5712;48.858;9.206;2022-11-15T03:05:18;6.07;;;4.47;;
11313;SDS011;5712;48.858;9.206;2022-11-15T03:07:51;7.33;;;5.17;;
11313;SDS011;5712;48.858;9.206;2022-11-15T03:10:24;5.27;;;4.77;;
11313;SDS011;5712;48.858;9.206;2022-11-15T03:12:59;6.20;;;4.60;;
11313;SDS011;5712;48.858;9.206;2022-11-15T03:15:36;7.63;;;4.83;;
11313;SDS011;5712;48.858;9.206;2022-11-15T03:18:10;7.33;;;4.73;;
11313;SDS011;5712;48.858;9.206;2022-11-15T03:20:41;6.20;;;5.10;;
11313;SDS011;5712;48.858;9.206;2022-11-15T03:23:10;6.83;;;5.10;;
11313;SDS011;5712;48.858;9.206;2022-11-15T03:25:38;7.20;;;5.13;;
11313;SDS011;5712;48.858;9.206;2022-11-15T03:28:10;7.30;;;5.80;;
11313;SDS011;5712;48.858;9.206;2022-11-15T03:30:43;8.97;;;6.20;;
11313;SDS011;5712;48.858;9.206;2022-11-15T03:33:14;7.60;;;5.27;;
11313;SDS011;5712;48.858;9.206;2022-11-15T03:35:42;7.53;;;5.83;;
11313;SDS011;5712;48.858;9.206;2022-11-15T03:38:11;7.77;;;5.77;;
11313;SDS011;5712;48.858;9.206;2022-11-15T03:40:45;7.97;;;6.30;;
11313;SDS011;5712;48.858;9.206;2022-11-15T03:43:21;9.10;;;6.77;;
11313;SDS011;5712;48.858;9.206;2022-11-15T03:45:55;8.53;;;6.33;;
11313;SDS011;5712;48.858;9.206;2022-11-15T03:48:29;10.07;;;6.63;;
11313;SDS011;5712;48.858;9.206;2022-11-15T03:50:59;8.90;;;5.77;;
11313;SDS011;5712;48.858;9.206;2022-11-15T03:53:27;8.47;;;6.07;;
11313;SDS011;5712;48.858;9.206;2022-11-15T03:55:55;7.83;;;5.97;;
11313;SDS011;5712;48.858;9.206;2022-11-15T03:58:22;8.83;;;6.43;;
11313;SDS011;5712;48.858;9.206;2022-11-15T04:00:48;11.10;;;6.67;;
11313;SDS011;5712;48.858;9.206;2022-11-15T04:03:15;9.93;;;6.17;;
11313;SDS011;5712;48.858;9.206;2022-11-15T04:05:43;8.07;;;6.20;;
11313;SDS011;5712;48.858;9.206;2022-11-15T04:08:10;9.10;;;6.63;;
11313;SDS011;5712;48.858;9.206;2022-11-15T04:10:36;8.60;;;6.23;;
11313;SDS011;5712;48.858;9.206;2022-11-15T04:13:03;8.73;;;6.67;;
11313;SDS011;5712;48.858;9.206;2022-11-15T04:15:30;9.30;;;5.70;;
11313;SDS011;5712;48.858;9.206;2022-11-15T04:17:56;7.07;;;5.90;;
11313;SDS011;5712;48.858;9.206;2022-11-15T04:20:24;7.70;;;5.87;;
11313;SDS011;5712;48.858;9.206;2022-11-15T04:23:11;7.70;;;5.60;;
11313;SDS011;5712;48.858;9.206;2022-11-15T04:25:57;8.30;;;5.63;;
11313;SDS011;5712;48.858;9.206;2022-11-15T04:28:26;6.47;;;5.47;;
11313;SDS011;5712;48.858;9.206;2022-11-15T04:30:53;7.53;;;5.63;;
11313;SDS011;5712;48.858;9.206;2022-11-15T04:33:19;6.80;;;5.90;;
11313;SDS011;5712;48.858;9.206;2022-11-15T04:35:47;8.27;;;5.70;;
11313;SDS011;5712;48.858;9.206;2022-11-15T04:38:29;8.60;;;6.20;;
11313;SDS011;5712;48.858;9.206;2022-11-15T04:40:56;8.27;;;6.17;;
11313;SDS011;5712;48.858;9.206;2022-11-15T04:43:22;7.77;;;5.43;;
11313;SDS011;5712;48.858;9.206;2022-11-15T04:45:49;7.27;;;5.50;;
11313;SDS011;5712;48.858;9.206;2022-11-15T04:48:16;5.80;;;5.20;;
11313;SDS011;5712;48.858;9.206;2022-11-15T04:50:42;7.57;;;5.40;;
11313;SDS011;5712;48.858;9.206;2022-11-15T04:53:09;6.83;;;5.53;;
11313;SDS011;5712;48.858;9.206;2022-11-15T04:55:37;5.77;;;5.00;;
11313;SDS011;5712;48.858;9.206;2022-11-15T04:58:04;7.33;;;5.60;;
11313;SDS011;5712;48.858;9.206;2022-11-15T05:00:30;7.37;;;5.53;;
11313;SDS011;5712;48.858;9.206;2022-11-15T05:02:57;7.73;;;5.80;;
11313;SDS011;5712;48.858;9.206;2022-11-15T05:05:41;9.70;;;5.47;;
11313;SDS011;5712;48.858;9.206;2022-11-15T05:08:08;7.37;;;5.83;;
11313;SDS011;5712;48.858;9.206;2022-11-15T05:10:34;6.90;;;5.40;;
11313;SDS011;5712;48.858;9.206;2022-11-15T05:13:02;7.50;;;5.30;;
11313;SDS011;5712;48.858;9.206;2022-11-15T05:15:29;7.47;;;5.17;;
11313;SDS011;5712;48.858;9.206;2022-11-15T05:17:59;7.43;;;5.80;;
11313;SDS011;5712;48.858;9.206;2022-11-15T05:20:26;7.23;;;5.73;;
11313;SDS011;5712;48.858;9.206;2022-11-15T05:22:52;6.97;;;5.43;;
11313;SDS011;5712;48.858;9.206;2022-11-15T05:25:20;8.23;;;5.70;;
11313;SDS011;5712;48.858;9.206;2022-11-15T05:27:48;6.97;;;5.37;;
11313;SDS011;5712;48.858;9.206;2022-11-15T05:30:15;7.27;;;5.43;;
11313;SDS011;5712;48.858;9.206;2022-11-15T05:32:42;7.23;;;5.77;;
11313;SDS011;5712;48.858;9.206;2022-11-15T05:35:09;7.67;;;5.80;;
11313;SDS011;5712;48.858;9.206;2022-11-15T05:37:40;8.07;;;5.97;;
11313;SDS011;5712;48.858;9.206;2022-11-15T05:40:07;7.70;;;5.40;;
11313;SDS011;5712;48.858;9.206;2022-11-15T05:42:34;7.63;;;5.83;;
11313;SDS011;5712;48.858;9.206;2022-11-15T05:45:03;8.77;;;5.97;;
11313;SDS011;5712;48.858;9.206;2022-11-15T05:47:32;7.47;;;5.63;;
11313;SDS011;5712;48.858;9.206;2022-11-15T05:50:01;10.23;;;6.40;;
11313;SDS011;5712;48.858;9.206;2022-11-15T05:52:28;8.60;;;6.43;;
11313;SDS011;5712;48.858;9.206;2022-11-15T05:54:57;11.50;;;6.73;;
11313;SDS011;5712;48.858;9.206;2022-11-15T05:57:25;9.27;;;6.50;;
11313;SDS011;5712;48.858;9.206;2022-11-15T05:59:51;9.83;;;6.60;;
11313;SDS011;5712;48.858;9.206;2022-11-15T06:02:21;8.67;;;5.67;;
11313;SDS011;5712;48.858;9.206;2022-11-15T06:04:48;5.97;;;5.33;;
11313;SDS011;5712;48.858;9.206;2022-11-15T06:07:14;7.27;;;6.20;;
11313;SDS011;5712;48.858;9.206;2022-11-15T06:09:41;7.07;;;6.03;;
11313;SDS011;5712;48.858;9.206;2022-11-15T06:12:07;8.03;;;6.00;;
11313;SDS011;5712;48.858;9.206;2022-11-15T06:14:34;8.80;;;6.33;;
11313;SDS011;5712;48.858;9.206;2022-11-15T06:17:01;7.50;;;5.73;;
11313;SDS011;5712;48.858;9.206;2022-11-15T06:19:29;7.80;;;6.13;;
11313;SDS011;5712;48.858;9.206;2022-11-15T06:21:57;6.17;;;5.50;;
11313;SDS011;5712;48.858;9.206;2022-11-15T06:24:24;9.87;;;6.00;;
11313;SDS011;5712;48.858;9.206;2022-11-15T06:26:51;6.70;;;5.30;;
11313;SDS011;5712;48.858;9.206;2022-11-15T06:29:18;10.63;;;5.97;;
11313;SDS011;5712;48.858;9.206;2022-11-15T06:31:44;8.60;;;6.10;;
11313;SDS011;5712;48.858;9.206;2022-11-15T06:34:11;8.97;;;6.00;;
11313;SDS011;5712;48.858;9.206;2022-11-15T06:36:39;7.77;;;5.30;;
11313;SDS011;5712;48.858;9.206;2022-11-15T06:39:05;6.93;;;5.47;;
11313;SDS011;5712;48.858;9.206;2022-11-15T06:41:33;9.10;;;5.90;;
11313;SDS011;5712;48.858;9.206;2022-11-15T06:44:00;7.77;;;5.57;;
11313;SDS011;5712;48.858;9.206;2022-11-15T06:46:27;7.87;;;5.53;;
11313;SDS011;5712;48.858;9.206;2022-11-15T06:48:53;7.17;;;5.57;;
11313;SDS011;5712;48.858;9.206;2022-11-15T06:51:20;5.73;;;5.03;;
11313;SDS011;5712;48.858;9.206;2022-11-15T06:53:48;9.43;;;6.00;;
11313;SDS011;5712;48.858;9.206;2022-11-15T06:56:15;9.33;;;5.50;;
11313;SDS011;5712;48.858;9.206;2022-11-15T06:58:41;6.37;;;5.53;;
11313;SDS011;5712;48.858;9.206;2022-11-15T07:01:08;11.40;;;6.17;;
11313;SDS011;5712;48.858;9.206;2022-11-15T07:03:37;9.47;;;6.27;;
11313;SDS011;5712;48.858;9.206;2022-11-15T07:06:05;7.40;;;6.07;;
11313;SDS011;5712;48.858;9.206;2022-11-15T07:08:33;7.03;;;5.70;;
11313;SDS011;5712;48.858;9.206;2022-11-15T07:11:02;7.40;;;5.50;;
11313;SDS011;5712;48.858;9.206;2022-11-15T07:13:33;9.80;;;6.23;;
11313;SDS011;5712;48.858;9.206;2022-11-15T07:16:01;7.03;;;5.60;;
11313;SDS011;5712;48.858;9.206;2022-11-15T07:18:29;8.23;;;5.63;;
11313;SDS011;5712;48.858;9.206;2022-11-15T07:20:59;9.13;;;5.77;;
11313;SDS011;5712;48.858;9.206;2022-11-15T07:23:26;6.43;;;5.73;;
11313;SDS011;5712;48.858;9.206;2022-11-15T07:25:53;6.93;;;5.83;;
11313;SDS011;5712;48.858;9.206;2022-11-15T07:28:21;8.67;;;5.70;;
11313;SDS011;5712;48.858;9.206;2022-11-15T07:30:48;6.43;;;5.33;;
11313;SDS011;5712;48.858;9.206;2022-11-15T07:33:14;7.33;;;5.40;;
11313;SDS011;5712;48.858;9.206;2022-11-15T07:35:41;8.23;;;5.27;;
11313;SDS011;5712;48.858;9.206;2022-11-15T07:38:08;7.03;;;5.57;;
11313;SDS011;5712;48.858;9.206;2022-11-15T07:40:34;7.50;;;5.40;;
11313;SDS011;5712;48.858;9.206;2022-11-15T07:43:01;8.93;;;6.07;;
11313;SDS011;5712;48.858;9.206;2022-11-15T07:45:30;7.57;;;5.43;;
11313;SDS011;5712;48.858;9.206;2022-11-15T07:47:59;6.80;;;5.13;;
11313;SDS011;5712;48.858;9.206;2022-11-15T07:50:26;8.17;;;5.73;;
11313;SDS011;5712;48.858;9.206;2022-11-15T07:52:54;7.03;;;5.27;;
11313;SDS011;5712;48.858;9.206;2022-11-15T07:55:21;6.87;;;5.10;;
11313;SDS011;5712;48.858;9.206;2022-11-15T07:57:48;6.23;;;4.40;;
11313;SDS011;5712;48.858;9.206;2022-11-15T08:00:15;5.70;;;4.60;;
11313;SDS011;5712;48.858;9.206;2022-11-15T08:02:44;6.73;;;4.87;;
11313;SDS011;5712;48.858;9.206;2022-11-15T08:05:11;7.23;;;5.33;;
11313;SDS011;5712;48.858;9.206;2022-11-15T08:07:37;7.00;;;4.73;;
11313;SDS011;5712;48.858;9.206;2022-11-15T08:10:05;7.40;;;5.23;;
11313;SDS011;5712;48.858;9.206;2022-11-15T08:12:33;6.73;;;5.00;;
11313;SDS011;5712;48.858;9.206;2022-11-15T08:14:59;7.53;;;4.80;;
11313;SDS011;5712;48.858;9.206;2022-11-15T08:17:26;7.07;;;5.37;;
11313;SDS011;5712;48.858;9.206;2022-11-15T08:19:58;5.37;;;4.80;;
11313;SDS011;5712;48.858;9.206;2022-11-15T08:22:25;6.40;;;4.77;;
11313;SDS011;5712;48.858;9.206;2022-11-15T08:24:52;8.43;;;4.80;;
11313;SDS011;5712;48.858;9.206;2022-11-15T08:27:18;8.60;;;5.00;;
11313;SDS011;5712;48.858;9.206;2022-11-15T08:29:45;8.43;;;4.87;;
11313;SDS011;5712;48.858;9.206;2022-11-15T08:32:13;7.57;;;4.70;;
11313;SDS011;5712;48.858;9.206;2022-11-15T08:34:40;6.23;;;4.37;;
11313;SDS011;5712;48.858;9.206;2022-11-15T08:37:08;5.37;;;4.40;;
11313;SDS011;5712;48.858;9.206;2022-11-15T08:39:34;5.10;;;4.20;;
11313;SDS011;5712;48.858;9.206;2022-11-15T08:42:01;7.73;;;4.97;;
11313;SDS011;5712;48.858;9.206;2022-11-15T08:44:28;9.80;;;5.00;;
11313;SDS011;5712;48.858;9.206;2022-11-15T08:46:54;5.73;;;4.10;;
11313;SDS011;5712;48.858;9.206;2022-11-15T08:49:21;5.70;;;4.13;;
11313;SDS011;5712;48.858;9.206;2022-11-15T08:51:47;6.00;;;4.00;;
11313;SDS011;5712;48.858;9.206;2022-11-15T08:54:15;5.57;;;4.03;;
11313;SDS011;5712;48.858;9.206;2022-11-15T08:56:42;6.90;;;4.90;;
11313;SDS011;5712;48.858;9.206;2022-11-15T08:59:09;7.27;;;4.50;;
11313;SDS011;5712;48.858;9.206;2022-11-15T09:01:35;6.27;;;4.37;;
11313;SDS011;5712;48.858;9.206;2022-11-15T09:04:02;4.90;;;4.20;;
11313;SDS011;5712;48.858;9.206;2022-11-15T09:06:30;5.80;;;4.33;;
11313;SDS011;5712;48.858;9.206;2022-11-15T09:08:57;4.50;;;4.00;;
11313;SDS011;5712;48.858;9.206;2022-11-15T09:11:25;5.13;;;3.83;;
11313;SDS011;5712;48.858;9.206;2022-11-15T09:13:51;4.37;;;3.90;;
11313;SDS011;5712;48.858;9.206;2022-11-15T09:16:18;5.97;;;4.10;;
11313;SDS011;5712;48.858;9.206;2022-11-15T09:18:45;5.60;;;4.20;;
11313;SDS011;5712;48.858;9.206;2022-11-15T09:21:12;5.90;;;4.00;;
11313;SDS011;5712;48.858;9.206;2022-11-15T09:23:38;4.17;;;3.60;;
11313;SDS011;5712;48.858;9.206;2022-11-15T09:26:05;3.80;;;3.40;;
11313;SDS011;5712;48.858;9.206;2022-11-15T09:28:34;3.70;;;3.37;;
11313;SDS011;5712;48.858;9.206;2022-11-15T09:31:02;4.53;;;3.90;;
11313;SDS011;5712;48.858;9.206;2022-11-15T09:33:30;6.10;;;3.93;;
11313;SDS011;5712;48.858;9.206;2022-11-15T09:35:59;5.87;;;3.97;;
11313;SDS011;5712;48.858;9.206;2022-11-15T09:38:27;4.90;;;3.40;;
11313;SDS011;5712;48.858;9.206;2022-11-15T09:40:57;3.97;;;3.37;;
11313;SDS011;5712;48.858;9.206;2022-11-15T09:43:42;4.20;;;3.00;;
11313;SDS011;5712;48.858;9.206;2022-11-15T09:46:18;4.57;;;3.00;;
11313;SDS011;5712;48.858;9.206;2022-11-15T09:48:54;4.80;;;2.90;;
11313;SDS011;5712;48.858;9.206;2022-11-15T09:51:26;4.60;;;3.40;;
11313;SDS011;5712;48.858;9.206;2022-11-15T09:54:01;4.10;;;3.00;;
11313;SDS011;5712;48.858;9.206;2022-11-15T09:56:32;3.90;;;3.20;;
11313;SDS011;5712;48.858;9.206;2022-11-15T09:59:15;3.50;;;3.20;;
11313;SDS011;5712;48.858;9.206;2022-11-15T10:01:49;4.50;;;2.80;;
11313;SDS011;5712;48.858;9.206;2022-11-15T10:04:22;4.90;;;3.23;;
11313;SDS011;5712;48.858;9.206;2022-11-15T10:06:52;6.30;;;2.87;;
11313;SDS011;5712;48.858;9.206;2022-11-15T10:09:24;4.47;;;3.00;;
11313;SDS011;5712;48.858;9.206;2022-11-15T10:11:55;4.10;;;2.80;;
11313;SDS011;5712;48.858;9.206;2022-11-15T10:14:25;3.60;;;3.00;;
11313;SDS011;5712;48.858;9.206;2022-11-15T10:20:06;5.40;;;3.40;;
11313;SDS011;5712;48.858;9.206;2022-11-15T10:22:44;7.03;;;3.40;;
11313;SDS011;5712;48.858;9.206;2022-11-15T10:25:17;4.83;;;3.50;;
11313;SDS011;5712;48.858;9.206;2022-11-15T10:27:52;5.43;;;3.40;;
11313;SDS011;5712;48.858;9.206;2022-11-15T10:30:23;5.33;;;3.30;;
11313;SDS011;5712;48.858;9.206;2022-11-15T10:32:56;5.00;;;3.33;;
11313;SDS011;5712;48.858;9.206;2022-11-15T10:35:24;4.73;;;3.63;;
11313;SDS011;5712;48.858;9.206;2022-11-15T10:37:51;5.20;;;3.50;;
11313;SDS011;5712;48.858;9.206;2022-11-15T10:40:30;5.57;;;3.57;;
11313;SDS011;5712;48.858;9.206;2022-11-15T10:43:04;5.43;;;3.40;;
11313;SDS011;5712;48.858;9.206;2022-11-15T10:45:40;5.20;;;3.10;;
11313;SDS011;5712;48.858;9.206;2022-11-15T10:48:21;4.63;;;3.30;;
11313;SDS011;5712;48.858;9.206;2022-11-15T10:50:51;4.00;;;3.47;;
11313;SDS011;5712;48.858;9.206;2022-11-15T10:53:24;4.30;;;3.50;;
11313;SDS011;5712;48.858;9.206;2022-11-15T10:55:58;4.63;;;3.27;;
11313;SDS011;5712;48.858;9.206;2022-11-15T10:58:30;4.93;;;2.90;;
11313;SDS011;5712;48.858;9.206;2022-11-15T11:01:13;3.70;;;2.90;;
11313;SDS011;5712;48.858;9.206;2022-11-15T11:03:42;4.60;;;3.03;;
11313;SDS011;5712;48.858;9.206;2022-11-15T11:06:11;3.70;;;2.70;;
11313;SDS011;5712;48.858;9.206;2022-11-15T11:08:39;4.70;;;3.10;;
11313;SDS011;5712;48.858;9.206;2022-11-15T11:11:06;4.97;;;3.10;;
11313;SDS011;5712;48.858;9.206;2022-11-15T11:13:34;4.30;;;2.90;;
11313;SDS011;5712;48.858;9.206;2022-11-15T11:16:20;4.17;;;2.93;;
11313;SDS011;5712;48.858;9.206;2022-11-15T11:19:02;4.47;;;3.30;;
11313;SDS011;5712;48.858;9.206;2022-11-15T11:21:38;4.20;;;2.70;;
11313;SDS011;5712;48.858;9.206;2022-11-15T11:24:14;3.47;;;2.87;;
11313;SDS011;5712;48.858;9.206;2022-11-15T11:26:54;4.43;;;3.10;;
11313;SDS011;5712;48.858;9.206;2022-11-15T11:29:36;3.37;;;2.87;;
11313;SDS011;5712;48.858;9.206;2022-11-15T11:32:18;2.80;;;2.50;;
11313;SDS011;5712;48.858;9.206;2022-11-15T11:34:57;3.20;;;2.70;;
11313;SDS011;5712;48.858;9.206;2022-11-15T11:37:31;3.20;;;2.80;;
11313;SDS011;5712;48.858;9.206;2022-11-15T11:40:11;2.93;;;2.60;;
11313;SDS011;5712;48.858;9.206;2022-11-15T11:42:44;5.13;;;2.77;;
11313;SDS011;5712;48.858;9.206;2022-11-15T11:45:26;3.77;;;2.80;;
11313;SDS011;5712;48.858;9.206;2022-11-15T11:48:20;5.23;;;2.87;;
11313;SDS011;5712;48.858;9.206;2022-11-15T11:51:03;15.83;;;11.03;;
11313;SDS011;5712;48.858;9.206;2022-11-15T11:53:35;9.67;;;7.07;;
11313;SDS011;5712;48.858;9.206;2022-11-15T11:56:14;6.37;;;4.20;;
11313;SDS011;5712;48.858;9.206;2022-11-15T11:58:48;4.50;;;3.30;;
11313;SDS011;5712;48.858;9.206;2022-11-15T12:01:20;5.47;;;3.80;;
11313;SDS011;5712;48.858;9.206;2022-11-15T12:03:51;4.17;;;2.80;;
11313;SDS011;5712;48.858;9.206;2022-11-15T12:06:23;3.60;;;2.90;;
11313;SDS011;5712;48.858;9.206;2022-11-15T12:08:57;4.37;;;3.27;;
11313;SDS011;5712;48.858;9.206;2022-11-15T12:11:28;3.73;;;2.80;;
11313;SDS011;5712;48.858;9.206;2022-11-15T12:14:01;5.50;;;2.77;;
11313;SDS011;5712;48.858;9.206;2022-11-15T12:16:30;3.47;;;2.70;;
11313;SDS011;5712;48.858;9.206;2022-11-15T12:19:00;3.73;;;2.67;;
11313;SDS011;5712;48.858;9.206;2022-11-15T12:21:34;5.10;;;2.93;;
11313;SDS011;5712;48.858;9.206;2022-11-15T12:24:05;3.73;;;3.20;;
11313;SDS011;5712;48.858;9.206;2022-11-15T12:26:35;3.90;;;2.90;;
11313;SDS011;5712;48.858;9.206;2022-11-15T12:29:09;4.10;;;2.70;;
11313;SDS011;5712;48.858;9.206;2022-11-15T12:31:41;4.00;;;3.23;;
11313;SDS011;5712;48.858;9.206;2022-11-15T12:34:16;3.03;;;2.70;;
11313;SDS011;5712;48.858;9.206;2022-11-15T12:37:01;4.70;;;2.70;;
11313;SDS011;5712;48.858;9.206;2022-11-15T12:42:40;3.87;;;2.90;;
11313;SDS011;5712;48.858;9.206;2022-11-15T12:47:53;4.93;;;2.70;;
11313;SDS011;5712;48.858;9.206;2022-11-15T12:53:25;4.23;;;3.00;;
11313;SDS011;5712;48.858;9.206;2022-11-15T12:56:08;3.43;;;2.30;;
11313;SDS011;5712;48.858;9.206;2022-11-15T12:58:44;3.67;;;2.83;;
11313;SDS011;5712;48.858;9.206;2022-11-15T13:04:21;6.17;;;3.00;;
11313;SDS011;5712;48.858;9.206;2022-11-15T13:06:53;3.63;;;2.53;;
11313;SDS011;5712;48.858;9.206;2022-11-15T13:15:35;3.43;;;2.60;;
11313;SDS011;5712;48.858;9.206;2022-11-15T13:18:25;4.00;;;2.80;;
11313;SDS011;5712;48.858;9.206;2022-11-15T13:20:54;4.57;;;2.97;;
11313;SDS011;5712;48.858;9.206;2022-11-15T13:23:22;5.43;;;2.73;;
11313;SDS011;5712;48.858;9.206;2022-11-15T13:25:55;5.57;;;2.80;;
11313;SDS011;5712;48.858;9.206;2022-11-15T13:28:39;4.10;;;2.80;;
11313;SDS011;5712;48.858;9.206;2022-11-15T13:31:16;3.27;;;2.30;;
11313;SDS011;5712;48.858;9.206;2022-11-15T13:33:48;4.97;;;3.10;;
11313;SDS011;5712;48.858;9.206;2022-11-15T13:36:15;3.10;;;2.53;;
11313;SDS011;5712;48.858;9.206;2022-11-15T13:38:54;2.93;;;2.63;;
11313;SDS011;5712;48.858;9.206;2022-11-15T13:41:23;2.60;;;2.40;;
11313;SDS011;5712;48.858;9.206;2022-11-15T13:43:51;5.47;;;3.60;;
11313;SDS011;5712;48.858;9.206;2022-11-15T13:46:20;2.93;;;2.63;;
11313;SDS011;5712;48.858;9.206;2022-11-15T13:48:51;3.80;;;3.00;;
11313;SDS011;5712;48.858;9.206;2022-11-15T13:51:22;2.83;;;2.63;;
11313;SDS011;5712;48.858;9.206;2022-11-15T13:53:54;4.90;;;3.30;;
11313;SDS011;5712;48.858;9.206;2022-11-15T13:56:24;5.07;;;3.33;;
11313;SDS011;5712;48.858;9.206;2022-11-15T13:58:53;4.80;;;2.73;;
11313;SDS011;5712;48.858;9.206;2022-11-15T14:01:21;4.60;;;2.90;;
11313;SDS011;5712;48.858;9.206;2022-11-15T14:03:53;4.90;;;2.63;;
11313;SDS011;5712;48.858;9.206;2022-11-15T14:06:23;4.37;;;2.83;;
11313;SDS011;5712;48.858;9.206;2022-11-15T14:09:04;3.30;;;2.80;;
11313;SDS011;5712;48.858;9.206;2022-11-15T14:11:49;3.40;;;2.77;;
11313;SDS011;5712;48.858;9.206;2022-11-15T14:14:17;4.47;;;3.00;;
11313;SDS011;5712;48.858;9.206;2022-11-15T14:16:47;3.23;;;2.60;;
11313;SDS011;5712;48.858;9.206;2022-11-15T14:19:34;4.80;;;3.07;;
11313;SDS011;5712;48.858;9.206;2022-11-15T14:22:11;5.13;;;3.00;;
11313;SDS011;5712;48.858;9.206;2022-11-15T14:24:42;3.97;;;3.13;;
11313;SDS011;5712;48.858;9.206;2022-11-15T14:27:20;4.03;;;3.03;;
11313;SDS011;5712;48.858;9.206;2022-11-15T14:29:49;4.27;;;3.10;;
11313;SDS011;5712;48.858;9.206;2022-11-15T14:32:16;4.57;;;3.10;;
11313;SDS011;5712;48.858;9.206;2022-11-15T14:34:46;6.97;;;3.47;;
11313;SDS011;5712;48.858;9.206;2022-11-15T14:37:18;5.27;;;3.30;;
11313;SDS011;5712;48.858;9.206;2022-11-15T14:39:48;4.70;;;3.60;;
11313;SDS011;5712;48.858;9.206;2022-11-15T14:42:16;4.13;;;3.40;;
11313;SDS011;5712;48.858;9.206;2022-11-15T14:44:43;4.10;;;3.63;;
11313;SDS011;5712;48.858;9.206;2022-11-15T14:47:09;4.20;;;3.40;;
11313;SDS011;5712;48.858;9.206;2022-11-15T14:49:36;4.60;;;3.40;;
11313;SDS011;5712;48.858;9.206;2022-11-15T14:52:04;5.20;;;3.40;;
11313;SDS011;5712;48.858;9.206;2022-11-15T14:54:42;4.33;;;3.70;;
11313;SDS011;5712;48.858;9.206;2022-11-15T14:57:10;4.37;;;3.70;;
11313;SDS011;5712;48.858;9.206;2022-11-15T14:59:37;3.77;;;3.33;;
11313;SDS011;5712;48.858;9.206;2022-11-15T15:02:07;3.57;;;3.27;;
11313;SDS011;5712;48.858;9.206;2022-11-15T15:04:39;6.20;;;3.43;;
11313;SDS011;5712;48.858;9.206;2022-11-15T15:07:06;4.70;;;3.30;;
11313;SDS011;5712;48.858;9.206;2022-11-15T15:09:33;4.07;;;3.53;;
11313;SDS011;5712;48.858;9.206;2022-11-15T15:11:59;4.27;;;3.60;;
11313;SDS011;5712;48.858;9.206;2022-11-15T15:14:27;5.07;;;3.70;;
11313;SDS011;5712;48.858;9.206;2022-11-15T15:16:54;4.83;;;4.20;;
11313;SDS011;5712;48.858;9.206;2022-11-15T15:19:21;6.17;;;4.67;;
11313;SDS011;5712;48.858;9.206;2022-11-15T15:21:47;7.73;;;4.23;;
11313;SDS011;5712;48.858;9.206;2022-11-15T15:24:14;7.10;;;4.53;;
11313;SDS011;5712;48.858;9.206;2022-11-15T15:26:41;5.63;;;4.53;;
11313;SDS011;5712;48.858;9.206;2022-11-15T15:29:08;6.70;;;4.63;;
11313;SDS011;5712;48.858;9.206;2022-11-15T15:31:36;6.03;;;4.93;;
11313;SDS011;5712;48.858;9.206;2022-11-15T15:34:03;6.30;;;5.27;;
11313;SDS011;5712;48.858;9.206;2022-11-15T15:36:29;6.67;;;5.03;;
11313;SDS011;5712;48.858;9.206;2022-11-15T15:38:56;9.93;;;5.77;;
11313;SDS011;5712;48.858;9.206;2022-11-15T15:41:23;7.67;;;5.37;;